Time;durP1;ratioP1;P1;durP2;ratioP2;P2;SDS_P1;SDS_P2;PMS_P1;PMS_P2;Temp;Humidity;BMP_temperature;BMP_pressure;BME280_temperature;BME280_humidity;BME280_pressure;Samples;Min_cycle;Max_cycle;Signal;HPM_P1;HPM_P2
2023/01/24 00:00:09;;;;;;;2.67;1.50;;;4.60;99.90;;;;;;5055910;28;20032;-77
2023/01/24 00:02:35;;;;;;;32.42;1.30;;;4.70;99.90;;;;;;5054741;28;20036;-77
2023/01/24 00:05:01;;;;;;;1.55;1.45;;;4.60;99.90;;;;;;5056114;28;20380;-76
2023/01/24 00:07:27;;;;;;;10.63;3.92;;;4.70;99.90;;;;;;5055201;28;20037;-77
2023/01/24 00:09:52;;;;;;;3.97;1.75;;;4.60;99.90;;;;;;5055972;28;20090;-77
2023/01/24 00:12:18;;;;;;;5.43;2.10;;;4.60;99.90;;;;;;5055703;28;20033;-76
2023/01/24 00:14:44;;;;;;;1.27;1.20;;;4.70;99.90;;;;;;5055742;28;20017;-77
2023/01/24 00:17:09;;;;;;;4.57;2.13;;;4.60;99.90;;;;;;5055502;28;20469;-77
2023/01/24 00:19:37;;;;;;;6.05;3.40;;;4.50;99.90;;;;;;5055423;28;20029;-77
2023/01/24 00:22:04;;;;;;;5.35;1.92;;;4.60;99.90;;;;;;5055540;28;20485;-77
2023/01/24 00:24:32;;;;;;;10.98;4.18;;;4.60;99.90;;;;;;5055349;28;20500;-77
2023/01/24 00:26:59;;;;;;;6.32;2.35;;;4.50;99.90;;;;;;5055503;28;20477;-76
2023/01/24 00:29:24;;;;;;;12.40;5.40;;;4.40;99.90;;;;;;5053762;28;20025;-77
2023/01/24 00:31:51;;;;;;;10.40;4.03;;;4.40;99.90;;;;;;5055511;28;20029;-77
2023/01/24 00:34:17;;;;;;;2.75;2.53;;;4.70;99.90;;;;;;5054019;28;20067;-76
2023/01/24 00:36:42;;;;;;;5.00;2.65;;;4.60;99.90;;;;;;5053636;28;20033;-76
2023/01/24 00:39:10;;;;;;;9.20;3.28;;;4.60;99.90;;;;;;5055078;28;20021;-76
2023/01/24 00:41:36;;;;;;;1.95;1.80;;;4.40;99.90;;;;;;5055175;28;20037;-76
2023/01/24 00:44:02;;;;;;;1.27;1.17;;;4.30;99.90;;;;;;5055134;28;20066;-76
2023/01/24 00:46:28;;;;;;;2.00;1.58;;;4.40;99.90;;;;;;5054921;28;20036;-76
2023/01/24 00:48:54;;;;;;;8.13;2.95;;;4.60;99.90;;;;;;5055026;28;20039;-77
2023/01/24 00:51:19;;;;;;;0.10;0.10;;;4.50;99.90;;;;;;5054877;28;20095;-77
2023/01/24 00:53:45;;;;;;;1.58;1.30;;;4.60;99.90;;;;;;5053645;28;20017;-77
2023/01/24 00:56:11;;;;;;;5.10;2.15;;;4.90;99.90;;;;;;5037222;28;20036;-76
2023/01/24 00:58:37;;;;;;;2.83;1.85;;;4.60;99.90;;;;;;5054583;28;20028;-76
2023/01/24 01:01:02;;;;;;;0.98;0.98;;;4.50;99.90;;;;;;5054872;28;20032;-77
2023/01/24 01:03:29;;;;;;;4.68;0.93;;;4.50;99.90;;;;;;5053553;28;20512;-76
2023/01/24 01:06:00;;;;;;;4.30;2.10;;;4.30;99.90;;;;;;5053133;28;20032;-76
2023/01/24 01:08:26;;;;;;;2.00;1.13;;;4.20;99.90;;;;;;5051479;28;20390;-76
2023/01/24 01:10:52;;;;;;;0.80;0.75;;;4.10;99.90;;;;;;5054278;28;20485;-76
2023/01/24 01:13:18;;;;;;;6.20;1.70;;;4.30;99.90;;;;;;5054429;28;20032;-76
2023/01/24 01:15:44;;;;;;;2.72;2.45;;;4.60;99.90;;;;;;5054456;28;20022;-77
2023/01/24 01:18:10;;;;;;;1.00;1.00;;;4.50;99.90;;;;;;5054638;28;20036;-77
2023/01/24 01:20:35;;;;;;;13.75;8.60;;;4.60;99.90;;;;;;5054139;28;20037;-77
2023/01/24 01:23:02;;;;;;;1.30;1.10;;;4.50;99.90;;;;;;5054415;28;20029;-76
2023/01/24 01:25:30;;;;;;;0.60;0.60;;;4.60;99.90;;;;;;5054317;28;20033;-76
2023/01/24 01:27:55;;;;;;;0.47;0.47;;;4.60;99.90;;;;;;5054332;28;20033;-76
2023/01/24 01:30:21;;;;;;;1.80;0.88;;;4.70;99.90;;;;;;5053303;28;20078;-76
2023/01/24 01:32:47;;;;;;;1.00;1.00;;;4.50;99.90;;;;;;5037268;28;20040;-76
2023/01/24 01:35:13;;;;;;;0.52;0.52;;;4.30;99.90;;;;;;5054926;28;20032;-76
2023/01/24 01:37:39;;;;;;;20.15;2.92;;;4.40;99.90;;;;;;5055098;28;20032;-76
2023/01/24 01:40:05;;;;;;;3.33;3.00;;;4.20;99.90;;;;;;5054675;28;20044;-76
2023/01/24 01:42:44;;;;;;;15.35;5.53;;;4.10;99.90;;;;;;5054130;28;20397;-77
2023/01/24 01:45:29;;;;;;;1.90;1.80;;;4.10;99.90;;;;;;5053465;28;20032;-77
2023/01/24 01:47:55;;;;;;;2.22;2.08;;;4.20;99.90;;;;;;5054793;28;20379;-76
2023/01/24 01:50:31;;;;;;;12.88;5.32;;;4.30;99.90;;;;;;5053370;28;20039;-77
2023/01/24 01:52:57;;;;;;;6.15;2.50;;;4.20;99.90;;;;;;5054854;28;20116;-76
2023/01/24 01:55:28;;;;;;;2.22;2.03;;;4.20;99.90;;;;;;5053606;28;20095;-76
2023/01/24 01:57:54;;;;;;;5.78;4.10;;;4.10;99.90;;;;;;5052590;28;20021;-76
2023/01/24 02:00:26;;;;;;;10.73;2.90;;;4.30;99.90;;;;;;5053599;28;20064;-77
2023/01/24 02:05:52;;;;;;;0.43;0.43;;;4.20;99.90;;;;;;5051976;28;20083;-76
2023/01/24 02:08:22;;;;;;;3.90;2.30;;;4.10;99.90;;;;;;5052341;28;20036;-77
2023/01/24 02:13:43;;;;;;;0.65;0.65;;;4.30;99.90;;;;;;5052322;28;20119;-77
2023/01/24 02:16:13;;;;;;;7.40;5.30;;;4.30;99.90;;;;;;5053100;28;20028;-77
2023/01/24 02:18:41;;;;;;;10.10;3.00;;;4.10;99.90;;;;;;5053199;28;20021;-76
2023/01/24 02:21:18;;;;;;;3.42;2.28;;;4.10;99.90;;;;;;5052992;28;20037;-76
2023/01/24 02:24:02;;;;;;;0.88;0.88;;;4.20;99.90;;;;;;5053564;28;20028;-76
2023/01/24 02:26:28;;;;;;;7.80;2.92;;;4.20;99.90;;;;;;5051773;28;20056;-76
2023/01/24 02:29:04;;;;;;;1.80;1.63;;;4.40;99.90;;;;;;5051875;28;20071;-76
2023/01/24 02:31:50;;;;;;;5.13;3.50;;;4.20;99.90;;;;;;5052687;28;20025;-77
2023/01/24 02:34:18;;;;;;;1.17;1.08;;;4.20;99.90;;;;;;5035409;28;20078;-76
2023/01/24 02:36:44;;;;;;;2.03;1.73;;;4.20;99.90;;;;;;5052791;28;20025;-77
2023/01/24 02:39:17;;;;;;;4.40;4.03;;;4.40;99.90;;;;;;5052113;28;20152;-77
2023/01/24 02:41:48;;;;;;;17.33;4.32;;;4.40;99.90;;;;;;5051423;28;20037;-77
2023/01/24 02:44:25;;;;;;;2.27;1.30;;;4.40;99.90;;;;;;5051680;28;20116;-77
2023/01/24 02:46:51;;;;;;;1.33;1.23;;;4.50;99.90;;;;;;5051086;28;20024;-76
2023/01/24 02:49:17;;;;;;;0.95;0.95;;;4.50;99.90;;;;;;5035263;28;20111;-76
2023/01/24 02:54:27;;;;;;;1.73;1.30;;;4.50;99.90;;;;;;5050805;28;20044;-76
2023/01/24 02:59:40;;;;;;;1.45;1.33;;;4.70;99.90;;;;;;5052685;28;20047;-77
2023/01/24 03:02:07;;;;;;;9.35;5.60;;;4.50;99.90;;;;;;5050938;28;20033;-77
2023/01/24 03:04:33;;;;;;;2.33;2.13;;;4.50;99.90;;;;;;5051410;28;20431;-76
2023/01/24 03:06:58;;;;;;;8.57;4.00;;;4.40;99.90;;;;;;5051009;28;20492;-76
2023/01/24 03:09:33;;;;;;;1.35;1.13;;;4.30;99.90;;;;;;5051441;28;20024;-75
2023/01/24 03:36:44;;;;;;;0.10;0.10;;;4.10;99.90;;;;;;5052407;28;20079;-77
2023/01/24 03:41:55;;;;;;;1.27;0.95;;;4.40;99.90;;;;;;5051019;28;20080;-77
2023/01/24 03:44:23;;;;;;;2.85;1.63;;;4.40;99.90;;;;;;5050916;28;20034;-77
2023/01/24 03:46:49;;;;;;;7.95;3.13;;;4.60;99.90;;;;;;5050965;28;20079;-77
2023/01/24 03:49:16;;;;;;;0.80;0.50;;;4.40;99.90;;;;;;5050949;28;20021;-78
2023/01/24 03:54:27;;;;;;;7.60;2.30;;;4.30;99.90;;;;;;5050900;28;20036;-77
2023/01/24 03:57:05;;;;;;;0.45;0.45;;;4.10;99.90;;;;;;5050795;28;20048;-77
2023/01/24 03:59:31;;;;;;;5.53;3.20;;;4.40;99.90;;;;;;5050490;28;20029;-77
2023/01/24 04:01:57;;;;;;;4.68;3.58;;;4.10;99.90;;;;;;5050938;28;20055;-77
2023/01/24 04:05:12;;;;;;;1.67;1.50;;;4.00;99.90;;;;;;5052391;28;20025;-77
2023/01/24 04:07:12;;;;;;;4.20;1.60;;;4.10;99.90;;;;;;5055653;28;20033;-77
2023/01/24 04:09:42;;;;;;;1.00;1.00;;;4.30;99.90;;;;;;5039276;28;20033;-77
2023/01/24 04:12:08;;;;;;;9.35;4.85;;;4.30;99.90;;;;;;5056718;28;20102;-76
2023/01/24 04:14:33;;;;;;;0.13;0.13;;;4.00;99.90;;;;;;5056018;28;20508;-77
2023/01/24 04:17:06;;;;;;;4.10;1.27;;;4.00;99.90;;;;;;5056145;28;20400;-77
2023/01/24 04:19:42;;;;;;;0.77;0.70;;;4.00;99.90;;;;;;5056356;28;20020;-77
2023/01/24 04:22:08;;;;;;;4.40;3.20;;;4.20;99.90;;;;;;5056228;28;20401;-77
2023/01/24 04:24:37;;;;;;;0.30;0.30;;;4.20;99.90;;;;;;5056713;28;20032;-77
2023/01/24 04:27:03;;;;;;;4.72;1.85;;;4.30;99.90;;;;;;5059998;28;20021;-77
2023/01/24 04:29:40;;;;;;;0.38;0.38;;;4.20;99.90;;;;;;5060443;28;20083;-77
2023/01/24 04:32:07;;;;;;;2.28;1.65;;;4.10;99.90;;;;;;5058619;28;20023;-77
2023/01/24 04:35:00;;;;;;;0.73;0.73;;;4.20;99.90;;;;;;5056651;28;20029;-77
2023/01/24 04:37:47;;;;;;;0.75;0.75;;;4.40;99.90;;;;;;5054168;28;20033;-76
2023/01/24 04:40:18;;;;;;;5.97;3.50;;;4.40;99.90;;;;;;5040134;28;20450;-77
2023/01/24 04:42:43;;;;;;;2.75;2.15;;;4.30;99.90;;;;;;5055320;28;20025;-77
2023/01/24 04:45:10;;;;;;;5.65;4.28;;;4.00;99.90;;;;;;5055183;28;20036;-76
2023/01/24 04:47:36;;;;;;;8.48;3.10;;;3.90;99.90;;;;;;5055419;28;20089;-76
2023/01/24 04:50:02;;;;;;;8.23;2.53;;;3.70;99.90;;;;;;5054069;28;20486;-77
2023/01/24 04:52:29;;;;;;;3.53;2.47;;;3.80;99.90;;;;;;5053866;28;20075;-77
2023/01/24 04:55:02;;;;;;;1.55;1.45;;;4.00;99.90;;;;;;5053600;28;20025;-77
2023/01/24 04:57:28;;;;;;;5.38;2.22;;;4.00;99.90;;;;;;5053286;28;20029;-77
2023/01/24 04:59:54;;;;;;;1.45;0.90;;;4.00;99.90;;;;;;5054856;28;20503;-77
2023/01/24 05:02:20;;;;;;;2.05;1.77;;;4.00;99.90;;;;;;5037036;28;20045;-77
2023/01/24 05:04:46;;;;;;;3.88;2.13;;;4.20;99.90;;;;;;5053367;28;20029;-77
2023/01/24 05:07:12;;;;;;;7.82;2.50;;;4.10;99.90;;;;;;5036776;28;20024;-77
2023/01/24 05:09:41;;;;;;;4.57;3.20;;;4.10;99.90;;;;;;5053578;28;20381;-77
2023/01/24 05:12:08;;;;;;;8.52;4.53;;;3.90;99.90;;;;;;5053185;28;20028;-77
2023/01/24 05:14:34;;;;;;;13.18;4.07;;;3.70;99.90;;;;;;5053690;28;20087;-77
2023/01/24 05:17:02;;;;;;;5.03;3.10;;;3.50;99.90;;;;;;5052293;28;20120;-77
2023/01/24 05:19:28;;;;;;;3.95;3.08;;;3.50;99.90;;;;;;5052832;28;20099;-77
2023/01/24 05:21:54;;;;;;;1.65;1.55;;;3.50;99.90;;;;;;5053324;28;20025;-77
2023/01/24 05:24:21;;;;;;;2.95;2.67;;;3.70;99.90;;;;;;5053230;28;20027;-77
2023/01/24 05:26:47;;;;;;;0.50;0.50;;;3.80;99.90;;;;;;5052940;28;20021;-77
2023/01/24 05:29:17;;;;;;;0.25;0.25;;;4.00;99.90;;;;;;5052797;28;20489;-77
2023/01/24 05:31:48;;;;;;;0.28;0.28;;;4.20;99.90;;;;;;5053020;28;20120;-77
2023/01/24 05:34:14;;;;;;;2.25;1.95;;;4.20;99.90;;;;;;5054394;28;20112;-77
2023/01/24 05:36:40;;;;;;;6.40;4.05;;;4.20;99.90;;;;;;5052635;28;20082;-77
2023/01/24 05:39:06;;;;;;;0.63;0.57;;;4.00;99.90;;;;;;5052877;28;20107;-77
2023/01/24 05:41:33;;;;;;;9.32;5.25;;;4.10;99.90;;;;;;5052415;28;20036;-77
2023/01/24 05:44:00;;;;;;;8.27;3.38;;;4.00;99.90;;;;;;5052806;28;20022;-77
2023/01/24 05:46:32;;;;;;;;;;;4.00;99.90;;;;;;5052884;28;20525;-77
2023/01/24 05:49:18;;;;;;;1.73;1.35;;;4.10;99.90;;;;;;5052830;28;19908;-77
2023/01/24 05:51:45;;;;;;;5.70;2.45;;;3.80;99.90;;;;;;5036204;28;20032;-77
2023/01/24 05:54:15;;;;;;;1.80;1.52;;;3.90;99.90;;;;;;5052449;28;20108;-77
2023/01/24 05:56:53;;;;;;;3.55;2.65;;;3.90;99.90;;;;;;5052380;28;20465;-77
2023/01/24 05:59:19;;;;;;;0.25;0.25;;;4.00;99.90;;;;;;5052615;28;20043;-77
2023/01/24 06:01:46;;;;;;;0.75;0.75;;;4.20;99.90;;;;;;5053260;28;20033;-77
2023/01/24 06:04:12;;;;;;;0.68;0.68;;;4.30;99.90;;;;;;5052722;28;20417;-77
2023/01/24 06:06:38;;;;;;;1.25;1.17;;;4.30;99.90;;;;;;5052298;28;20477;-76
2023/01/24 06:09:05;;;;;;;0.43;0.43;;;4.50;99.90;;;;;;5051845;28;20053;-77
2023/01/24 06:11:33;;;;;;;4.78;2.88;;;4.40;99.90;;;;;;5052345;28;20084;-77
2023/01/24 06:14:11;;;;;;;9.88;3.85;;;4.40;99.90;;;;;;5052079;28;20029;-77
2023/01/24 06:16:36;;;;;;;5.97;2.75;;;4.20;99.90;;;;;;5052137;28;20031;-78
2023/01/24 06:19:03;;;;;;;3.50;1.17;;;4.00;99.90;;;;;;5052171;28;20511;-77
2023/01/24 06:21:44;;;;;;;4.82;3.40;;;4.00;99.90;;;;;;5051722;28;20116;-77
2023/01/24 06:24:23;;;;;;;3.13;1.98;;;4.00;99.90;;;;;;5051841;28;20052;-77
2023/01/24 06:26:59;;;;;;;2.50;1.35;;;4.20;99.90;;;;;;5052059;28;20021;-77
2023/01/24 06:29:25;;;;;;;5.18;2.88;;;4.20;99.90;;;;;;5052960;28;20078;-77
2023/01/24 06:32:19;;;;;;;0.70;0.70;;;4.20;99.90;;;;;;5053085;28;20028;-77
2023/01/24 06:35:11;;;;;;;5.70;1.00;;;4.40;99.90;;;;;;5043965;28;20049;-78
2023/01/24 06:37:49;;;;;;;2.97;2.70;;;4.20;99.90;;;;;;5051332;28;20037;-78
2023/01/24 06:40:18;;;;;;;1.45;1.35;;;4.20;99.90;;;;;;5052831;28;20436;-77
2023/01/24 06:42:44;;;;;;;0.10;0.10;;;4.10;99.90;;;;;;5053729;28;20033;-77
2023/01/24 06:45:10;;;;;;;11.48;3.60;;;4.20;99.90;;;;;;5054443;28;20035;-77
2023/01/24 06:47:36;;;;;;;2.55;0.93;;;4.20;99.90;;;;;;5054775;28;20119;-77
2023/01/24 06:50:04;;;;;;;2.80;1.65;;;4.30;99.90;;;;;;5054805;28;20500;-76
2023/01/24 06:52:30;;;;;;;1.85;0.85;;;4.20;99.90;;;;;;5054220;28;20028;-77
2023/01/24 06:54:56;;;;;;;3.72;2.58;;;4.10;99.90;;;;;;5054212;28;20028;-77
2023/01/24 06:57:22;;;;;;;0.85;0.85;;;4.20;99.90;;;;;;5053599;28;20025;-76
2023/01/24 06:59:47;;;;;;;1.77;1.27;;;4.30;99.90;;;;;;5045387;28;20017;-77
2023/01/24 07:02:13;;;;;;;1.67;1.45;;;4.30;99.90;;;;;;5048698;28;20041;-76
2023/01/24 07:04:39;;;;;;;0.50;0.50;;;4.50;99.90;;;;;;5051668;28;20100;-76
2023/01/24 07:07:08;;;;;;;1.42;1.33;;;4.50;99.90;;;;;;5055292;28;20116;-77
2023/01/24 07:09:33;;;;;;;1.00;0.98;;;4.30;99.90;;;;;;5068708;28;20116;-76
2023/01/24 07:11:59;;;;;;;13.90;3.88;;;4.20;99.90;;;;;;5063409;28;20043;-76
2023/01/24 07:14:25;;;;;;;4.10;2.50;;;4.30;99.90;;;;;;5057823;28;20049;-77
2023/01/24 07:16:51;;;;;;;0.30;0.30;;;4.10;99.90;;;;;;5055241;28;20040;-76
2023/01/24 07:19:21;;;;;;;1.65;1.55;;;4.10;99.90;;;;;;5058009;28;20400;-77
2023/01/24 07:21:47;;;;;;;4.20;3.08;;;4.00;99.90;;;;;;5049979;28;20033;-77
2023/01/24 07:24:19;;;;;;;4.80;1.65;;;3.70;99.90;;;;;;5062072;28;20481;-77
2023/01/24 07:26:44;;;;;;;;;;;3.80;99.90;;;;;;5057282;28;20492;-77
2023/01/24 07:29:11;;;;;;;2.35;2.08;;;3.80;99.90;;;;;;5058903;28;19908;-77
2023/01/24 07:31:37;;;;;;;14.15;7.78;;;3.80;99.90;;;;;;5036861;28;20025;-76
2023/01/24 07:34:03;;;;;;;7.93;4.30;;;3.60;99.90;;;;;;5061741;28;20477;-76
2023/01/24 07:36:29;;;;;;;11.20;3.45;;;3.70;99.90;;;;;;5065140;28;20033;-77
2023/01/24 07:38:55;;;;;;;0.43;0.43;;;3.50;99.90;;;;;;5060687;28;20082;-76
2023/01/24 07:41:21;;;;;;;2.08;1.70;;;3.70;99.90;;;;;;5059751;28;20036;-76
2023/01/24 07:43:52;;;;;;;4.10;1.40;;;3.80;99.90;;;;;;5055316;28;20108;-77
2023/01/24 07:46:18;;;;;;;1.23;0.95;;;4.10;99.90;;;;;;5067492;28;20555;-76
2023/01/24 07:48:44;;;;;;;9.13;2.92;;;4.10;99.90;;;;;;5065453;28;20021;-76
2023/01/24 07:51:10;;;;;;;14.85;5.90;;;3.90;99.90;;;;;;5065572;28;20044;-76
2023/01/24 07:53:36;;;;;;;5.60;1.70;;;3.80;99.90;;;;;;5058762;28;20021;-76
2023/01/24 07:56:03;;;;;;;2.75;1.75;;;4.00;99.90;;;;;;5054719;28;20480;-76
2023/01/24 07:58:30;;;;;;;3.60;2.15;;;4.00;99.90;;;;;;5048232;28;20595;-76
2023/01/24 08:00:56;;;;;;;6.00;4.45;;;3.90;99.90;;;;;;5058094;28;20755;-75
2023/01/24 08:03:23;;;;;;;4.95;2.95;;;3.80;99.90;;;;;;5059171;28;20021;-76
2023/01/24 08:05:48;;;;;;;4.57;3.35;;;3.70;99.90;;;;;;5056338;28;20032;-76
2023/01/24 08:08:14;;;;;;;5.15;2.03;;;3.40;99.90;;;;;;5060866;28;20025;-76
2023/01/24 08:10:40;;;;;;;4.63;4.13;;;3.30;99.90;;;;;;5059913;28;20031;-78
2023/01/24 08:13:05;;;;;;;5.18;3.20;;;3.30;99.90;;;;;;5059437;28;20024;-76
2023/01/24 08:15:31;;;;;;;3.70;2.92;;;3.40;99.90;;;;;;5060895;28;20056;-77
2023/01/24 08:17:57;;;;;;;1.73;1.23;;;3.40;99.90;;;;;;5059949;28;20017;-77
2023/01/24 08:20:23;;;;;;;7.28;3.35;;;3.30;99.90;;;;;;5057183;28;20094;-77
2023/01/24 08:22:54;;;;;;;4.90;2.42;;;3.30;99.90;;;;;;5053681;28;20032;-77
2023/01/24 08:25:20;;;;;;;5.40;3.38;;;3.40;99.90;;;;;;5047940;28;20020;-77
2023/01/24 08:27:45;;;;;;;4.03;3.28;;;3.20;99.90;;;;;;5063884;28;20021;-77
2023/01/24 08:30:12;;;;;;;2.55;0.73;;;3.20;99.90;;;;;;5059140;28;20021;-76
2023/01/24 08:32:38;;;;;;;1.70;1.60;;;3.40;99.90;;;;;;5056571;28;20072;-77
2023/01/24 08:35:04;;;;;;;8.35;4.65;;;3.50;99.90;;;;;;5069339;28;20029;-77
2023/01/24 08:37:30;;;;;;;4.22;2.35;;;3.70;99.90;;;;;;5068593;28;20039;-77
2023/01/24 08:39:56;;;;;;;8.10;3.53;;;3.60;99.90;;;;;;5063545;28;20025;-75
2023/01/24 08:42:23;;;;;;;7.38;3.75;;;3.50;99.90;;;;;;5057784;28;20021;-78
2023/01/24 08:44:48;;;;;;;4.70;3.05;;;3.40;99.90;;;;;;5055273;28;20036;-78
2023/01/24 08:47:14;;;;;;;8.25;3.65;;;3.50;99.90;;;;;;5070103;28;20021;-76
2023/01/24 08:49:40;;;;;;;0.80;0.80;;;3.30;99.90;;;;;;5060351;28;20036;-79
2023/01/24 08:52:06;;;;;;;5.65;2.53;;;3.30;99.90;;;;;;5058056;28;20032;-76
2023/01/24 08:54:32;;;;;;;0.95;0.77;;;3.40;99.90;;;;;;5055499;28;20469;-76
2023/01/24 08:56:58;;;;;;;2.08;1.13;;;3.40;99.90;;;;;;5048724;28;20024;-76
2023/01/24 08:59:25;;;;;;;0.82;0.82;;;3.60;99.90;;;;;;5058698;28;20469;-76
2023/01/24 09:01:50;;;;;;;3.67;2.63;;;3.60;99.90;;;;;;5060563;28;20020;-77
2023/01/24 09:04:16;;;;;;;6.85;2.67;;;3.70;99.90;;;;;;5052168;28;20487;-76
2023/01/24 09:06:42;;;;;;;0.10;0.10;;;3.70;99.90;;;;;;5053300;28;20028;-76
2023/01/24 09:09:08;;;;;;;0.13;0.13;;;3.80;99.90;;;;;;5068795;28;20500;-76
2023/01/24 09:11:33;;;;;;;4.22;2.72;;;4.00;99.90;;;;;;5068214;28;20033;-73
2023/01/24 09:13:59;;;;;;;2.55;1.20;;;4.40;99.90;;;;;;5060700;28;20025;-76
2023/01/24 09:16:27;;;;;;;1.85;1.55;;;4.40;99.90;;;;;;5057187;28;20355;-76
2023/01/24 09:18:55;;;;;;;1.20;1.17;;;4.20;99.90;;;;;;5059124;28;20496;-76
2023/01/24 09:21:22;;;;;;;1.77;1.63;;;4.30;99.90;;;;;;5055538;28;20472;-76
2023/01/24 09:23:47;;;;;;;3.25;1.85;;;4.30;99.90;;;;;;5060482;28;20032;-76
2023/01/24 09:26:13;;;;;;;0.40;0.40;;;4.30;99.90;;;;;;5067906;28;20023;-75
2023/01/24 09:28:41;;;;;;;0.43;0.43;;;4.20;99.90;;;;;;5053113;28;20036;-75
2023/01/24 09:31:08;;;;;;;3.50;1.20;;;4.10;99.90;;;;;;5052038;28;20128;-75
2023/01/24 09:33:34;;;;;;;0.85;0.85;;;4.20;99.90;;;;;;5050481;28;20118;-76
2023/01/24 09:36:03;;;;;;;2.08;0.77;;;4.20;99.90;;;;;;5052596;28;20033;-75
2023/01/24 09:38:31;;;;;;;0.55;0.55;;;4.20;99.90;;;;;;5052370;28;20041;-74
2023/01/24 09:41:32;;;;;;;3.78;3.10;;;4.30;99.90;;;;;;5053014;28;20122;-75
2023/01/24 09:44:07;;;;;;;4.03;2.55;;;4.10;99.90;;;;;;5026975;28;20034;-75
2023/01/24 09:46:33;;;;;;;3.00;1.40;;;4.10;99.90;;;;;;5051469;28;20025;-75
2023/01/24 09:49:13;;;;;;;2.17;2.03;;;4.30;99.90;;;;;;5065147;28;20499;-75
2023/01/24 09:51:49;;;;;;;2.28;1.33;;;4.20;99.90;;;;;;5057540;28;20025;-75
2023/01/24 09:54:28;;;;;;;1.63;1.05;;;4.30;99.90;;;;;;5054690;28;20484;-75
2023/01/24 09:56:56;;;;;;;2.80;2.58;;;4.00;99.90;;;;;;5050525;28;20041;-75
2023/01/24 09:59:35;;;;;;;8.82;4.95;;;3.90;99.90;;;;;;5060082;28;20385;-75
2023/01/24 10:02:02;;;;;;;1.52;1.42;;;3.90;99.90;;;;;;5055884;28;20056;-75
2023/01/24 10:04:37;;;;;;;7.68;5.10;;;4.10;99.90;;;;;;5055751;28;20027;-74
2023/01/24 10:07:15;;;;;;;4.90;2.25;;;4.20;99.90;;;;;;5048408;28;20024;-74
2023/01/24 10:10:25;;;;;;;1.35;1.25;;;4.20;99.90;;;;;;5060418;28;20059;-75
2023/01/24 10:13:01;;;;;;;1.10;0.88;;;4.20;99.90;;;;;;5068315;28;20693;-75
2023/01/24 10:15:27;;;;;;;5.15;3.38;;;4.40;99.90;;;;;;5054941;28;20048;-75
2023/01/24 10:18:10;;;;;;;1.63;1.23;;;4.20;99.90;;;;;;5058351;28;20089;-75
2023/01/24 10:20:44;;;;;;;1.02;0.95;;;4.40;99.90;;;;;;5056542;28;20043;-76
2023/01/24 10:23:31;;;;;;;1.17;1.17;;;4.60;99.90;;;;;;5050308;28;20086;-74
2023/01/24 10:26:11;;;;;;;1.90;1.60;;;4.50;99.90;;;;;;5042729;28;20033;-73
2023/01/24 10:28:43;;;;;;;3.05;2.85;;;4.40;99.90;;;;;;5052104;28;20044;-73
2023/01/24 10:31:24;;;;;;;2.45;1.95;;;4.40;99.90;;;;;;5051557;28;20102;-75
2023/01/24 10:33:57;;;;;;;2.13;1.95;;;4.40;99.90;;;;;;5049355;28;20486;-74
2023/01/24 10:37:09;;;;;;;8.10;4.18;;;4.70;99.90;;;;;;5048133;28;20025;-77
2023/01/24 10:39:37;;;;;;;1.40;0.50;;;4.90;99.90;;;;;;5043751;28;20041;-75
2023/01/24 10:42:31;;;;;;;0.90;0.90;;;4.60;99.90;;;;;;5052847;28;20057;-75
2023/01/24 10:45:09;;;;;;;3.17;3.00;;;4.50;99.90;;;;;;5052606;28;20056;-72
2023/01/24 10:47:56;;;;;;;2.20;1.85;;;4.50;99.90;;;;;;5052663;28;20150;-73
2023/01/24 10:50:23;;;;;;;2.95;0.85;;;4.60;99.90;;;;;;5051378;28;20040;-73
2023/01/24 10:52:49;;;;;;;0.15;0.15;;;4.70;99.90;;;;;;5052775;28;20548;-75
2023/01/24 10:55:31;;;;;;;1.30;0.80;;;4.80;99.90;;;;;;5052638;28;20031;-76
2023/01/24 10:57:57;;;;;;;1.05;1.05;;;4.80;99.90;;;;;;5052565;28;20043;-75
2023/01/24 11:00:34;;;;;;;0.10;0.10;;;4.60;99.90;;;;;;5052507;28;20033;-75
2023/01/24 11:03:10;;;;;;;0.90;0.88;;;4.40;99.90;;;;;;5051376;28;20048;-75
2023/01/24 11:05:40;;;;;;;2.08;1.88;;;4.00;99.90;;;;;;5052509;28;20036;-76
2023/01/24 11:08:20;;;;;;;3.47;2.75;;;4.10;99.90;;;;;;5053057;28;20021;-75
2023/01/24 11:10:46;;;;;;;14.10;6.57;;;4.20;99.90;;;;;;5049206;28;20060;-75
2023/01/24 11:13:33;;;;;;;3.08;2.88;;;4.30;99.90;;;;;;5057460;28;20025;-75
2023/01/24 11:16:16;;;;;;;1.88;1.75;;;4.40;99.90;;;;;;5054472;28;20036;-74
2023/01/24 11:18:59;;;;;;;0.85;0.85;;;4.10;99.90;;;;;;5061737;28;20054;-75
2023/01/24 11:21:28;;;;;;;1.33;1.23;;;4.40;99.90;;;;;;5057936;28;20068;-75
2023/01/24 11:24:04;;;;;;;1.77;1.67;;;4.60;99.90;;;;;;5054504;28;20107;-75
2023/01/24 11:26:34;;;;;;;0.35;0.35;;;4.80;99.90;;;;;;5053589;28;20025;-73
2023/01/24 11:29:02;;;;;;;2.40;2.10;;;4.80;99.90;;;;;;5058417;28;20025;-73
2023/01/24 11:31:32;;;;;;;0.60;0.60;;;4.60;99.90;;;;;;5061052;28;20017;-75
2023/01/24 11:34:35;;;;;;;3.22;2.85;;;4.80;99.90;;;;;;5054762;28;20465;-75
2023/01/24 11:37:05;;;;;;;;;;;4.80;99.90;;;;;;5027745;28;20123;-75
2023/01/24 11:39:48;;;;;;;2.17;2.08;;;4.90;99.90;;;;;;5063459;28;19912;-76
2023/01/24 11:42:25;;;;;;;4.90;3.63;;;4.70;99.90;;;;;;5048756;28;20044;-75
2023/01/24 11:45:03;;;;;;;3.67;2.00;;;4.50;99.90;;;;;;5059013;28;20020;-75
2023/01/24 11:47:36;;;;;;;2.03;1.92;;;4.50;99.90;;;;;;5049516;28;20047;-75
2023/01/24 11:50:37;;;;;;;4.05;2.00;;;4.40;99.90;;;;;;5051842;28;20055;-75
2023/01/24 11:53:10;;;;;;;5.53;4.15;;;4.40;99.90;;;;;;5029815;28;20150;-75
2023/01/24 11:56:13;;;;;;;1.25;0.88;;;4.20;99.90;;;;;;5044574;28;20024;-74
2023/01/24 11:58:44;;;;;;;1.45;1.35;;;4.30;99.90;;;;;;5048531;28;20147;-75
2023/01/24 12:01:28;;;;;;;1.77;1.67;;;4.50;99.90;;;;;;5059224;28;20868;-75
2023/01/24 12:03:59;;;;;;;4.32;1.35;;;4.40;99.90;;;;;;5062342;28;20025;-75
2023/01/24 12:06:53;;;;;;;0.73;0.63;;;4.70;99.90;;;;;;5042281;28;20052;-75
2023/01/24 12:09:29;;;;;;;2.05;1.50;;;4.60;99.90;;;;;;5042000;28;20501;-75
2023/01/24 12:12:07;;;;;;;2.60;0.82;;;4.90;99.90;;;;;;5064764;28;20523;-75
2023/01/24 12:15:05;;;;;;;6.57;1.42;;;5.00;99.90;;;;;;5048800;28;20073;-75
2023/01/24 12:18:18;;;;;;;2.72;2.28;;;4.90;99.90;;;;;;5061554;28;20090;-73
2023/01/24 12:20:50;;;;;;;25.55;2.22;;;4.90;99.90;;;;;;5065809;28;20032;-75
2023/01/24 12:23:24;;;;;;;7.70;1.77;;;4.70;99.90;;;;;;5043116;28;20079;-75
2023/01/24 12:25:52;;;;;;;0.73;0.73;;;4.40;99.90;;;;;;5051656;28;20041;-75
2023/01/24 12:28:35;;;;;;;2.50;2.30;;;4.50;99.90;;;;;;5067460;28;20102;-75
2023/01/24 12:31:04;;;;;;;0.45;0.22;;;4.60;99.90;;;;;;5067875;28;20031;-75
2023/01/24 12:33:48;;;;;;;6.03;3.40;;;4.60;99.90;;;;;;5049963;28;20056;-76
2023/01/24 12:36:34;;;;;;;9.13;3.80;;;4.60;99.90;;;;;;5056682;28;20484;-75
2023/01/24 12:39:10;;;;;;;0.85;0.60;;;4.30;99.90;;;;;;5071764;28;20032;-75
2023/01/24 12:41:40;;;;;;;6.80;2.88;;;4.10;99.90;;;;;;5060201;28;20049;-75
2023/01/24 12:44:34;;;;;;;1.55;0.60;;;4.10;99.90;;;;;;5059488;28;20021;-75
2023/01/24 12:47:27;;;;;;;3.00;1.95;;;4.30;99.90;;;;;;5053749;28;20090;-75
2023/01/24 12:50:22;;;;;;;0.50;0.50;;;4.20;99.90;;;;;;5052775;28;20025;-75
2023/01/24 12:52:54;;;;;;;7.32;3.22;;;4.40;99.90;;;;;;5053173;28;20107;-75
2023/01/24 12:55:28;;;;;;;1.45;1.38;;;4.40;99.90;;;;;;5051383;28;20100;-75
2023/01/24 12:58:00;;;;;;;1.20;1.15;;;4.50;99.90;;;;;;5053258;28;20021;-75
2023/01/24 13:00:32;;;;;;;0.10;0.10;;;4.50;99.90;;;;;;5053259;28;20035;-75
2023/01/24 13:03:24;;;;;;;4.90;2.72;;;4.60;99.90;;;;;;5053526;28;20060;-75
2023/01/24 13:06:18;;;;;;;3.95;2.97;;;4.50;99.90;;;;;;5053234;28;20040;-75
2023/01/24 13:09:02;;;;;;;3.53;1.75;;;4.50;99.90;;;;;;5053077;28;20365;-75
2023/01/24 13:11:29;;;;;;;7.57;4.47;;;4.40;99.90;;;;;;5053339;28;20491;-75
2023/01/24 13:14:06;;;;;;;3.65;1.80;;;4.40;99.90;;;;;;5054636;28;20037;-75
2023/01/24 13:17:07;;;;;;;3.75;2.33;;;4.70;99.90;;;;;;5045783;28;20418;-76
2023/01/24 13:19:57;;;;;;;0.10;0.10;;;4.50;99.90;;;;;;5029201;28;20539;-76
2023/01/24 13:22:47;;;;;;;0.10;0.10;;;4.60;99.90;;;;;;5051606;28;20045;-75
2023/01/24 13:25:40;;;;;;;3.88;1.30;;;5.00;99.90;;;;;;5053860;28;20021;-77
2023/01/24 13:28:17;;;;;;;0.10;0.10;;;5.20;99.90;;;;;;5054023;28;20040;-73
2023/01/24 13:30:55;;;;;;;0.73;0.73;;;5.30;99.90;;;;;;5054169;28;20028;-74
2023/01/24 13:33:40;;;;;;;0.20;0.20;;;5.20;99.90;;;;;;5052746;28;20028;-73
2023/01/24 13:36:07;;;;;;;4.30;0.95;;;5.10;99.90;;;;;;5053323;28;20357;-74
2023/01/24 13:38:42;;;;;;;2.58;2.42;;;4.90;99.90;;;;;;5052802;28;20033;-74
2023/01/24 13:41:15;;;;;;;2.53;2.08;;;5.00;99.90;;;;;;5052336;28;20060;-75
2023/01/24 13:44:19;;;;;;;2.45;0.90;;;4.90;99.90;;;;;;5054174;28;20526;-75
2023/01/24 13:46:45;;;;;;;0.50;0.50;;;4.90;99.90;;;;;;5049557;28;20487;-77
2023/01/24 13:49:18;;;;;;;3.03;2.55;;;5.30;99.90;;;;;;5052746;28;20056;-75
2023/01/24 13:51:49;;;;;;;1.77;0.95;;;5.20;99.90;;;;;;5053688;28;20025;-75
2023/01/24 13:54:45;;;;;;;2.40;2.30;;;5.20;99.90;;;;;;5053898;28;20021;-75
2023/01/24 13:57:21;;;;;;;0.10;0.10;;;5.00;99.90;;;;;;5053498;28;20029;-74
2023/01/24 14:00:08;;;;;;;1.48;1.38;;;5.20;99.90;;;;;;5052886;28;20033;-75
2023/01/24 14:02:42;;;;;;;0.10;0.10;;;5.00;99.90;;;;;;5053862;28;20068;-75